Aeroporto :
LOGIN :

Iscrizione | Disclaimer

   EN    FR    IT 

 










Sommario :    VFR   VFR Marginale   IFR   IFR Intensivo   IFR Molto Intensivo
Visibilità : 
Base nubi : 
>= 8 km
>= 3000ft
5 / 8 km
1000 / 3000 ft
1500m / 5 km
500 / 1000 ft
800 / 1500m
200 / 500 ft
< 800m
< 200 ft
Simboli :   Temporali  Nebbia  Neve Forte  Precipitazioni Forti  Vento > 20 kt
SIGMETs :   Varie  Temporali  Ghiacco  Turbolenza  Onda orograficha  Ceneri Vulcaniche







- Altitudine del aeroporto : 138 ft
- Codice IATA : BIO


LEBB - Bilbao

ULTIMO METAR :
  • 250500Z 32004KT 300V360 9999 FEW014 BKN023 BKN045 12/10 Q1027 NOSIG

METARs OBSOLETI :
  • 250430Z VRB02KT 9999 FEW014 SCT020 BKN040 11/10 Q1027 NOSIG
  • 250400Z 27004KT 240V310 9999 BKN045 11/10 Q1027 NOSIG
  • 250330Z AUTO VRB02KT 9999 BKN038/// 11/10 Q1027
  • 250300Z AUTO 27002KT 9999 4200 BKN034/// 11/10 Q1027
  • 250230Z AUTO VRB01KT 9999 4600 FEW028/// BKN035/// 10/09 Q1028

TAF TAF LEBB
Valido dal 25 a 00 ore il 26 a 00 ore UTC


242300Z 2500/2524 29006KT 8000 SCT015 TX15/2514Z TN09/2506Z
PROB40
TEMPO 2500/2508 3000 -RA BR BKN010
PROB40
TEMPO 2500/2508 1500 BR BCFG BKN005
PROB40
TEMPO 2511/2517 01010KT
Nessun NOTAM noto per questo aeroporto.



MetMap, La meteo Aeronautica in un colpo d'occhio ! - Copyright ORBIFLY Dicembre 2007 - Disclaimer

ORBIFLY MET'MAP TEAM :

Programmazione e sviluppo : Alexandra Zaïnal
Concezione e sviluppo : Baudouin d'Aumeries
Co-Programmazione e sviluppo : Marc-Olivier Méhu
Supporto tecnico e logistico : Manuel Goepfert
Aiuto per la traduzione : Arnaldo La Scala

Contatto : metmap@orbifly.com




FONTI E CREDITI :

   NOAA